createdAt,value
2017-12-31T00:02:09.638Z,13.50
2017-12-31T00:04:37.920Z,13.30
2017-12-31T00:07:05.456Z,13.30
2017-12-31T00:09:32.959Z,13.30
2017-12-31T00:12:00.498Z,13.30
2017-12-31T00:14:28.015Z,13.30
2017-12-31T00:16:55.523Z,13.30
2017-12-31T00:19:23.043Z,13.30
2017-12-31T00:21:50.535Z,13.30
2017-12-31T00:24:18.054Z,13.30
2017-12-31T00:26:46.437Z,13.30
2017-12-31T00:29:14.722Z,13.30
2017-12-31T00:31:42.259Z,13.30
2017-12-31T00:34:09.754Z,13.30
2017-12-31T00:36:38.054Z,13.30
2017-12-31T00:39:05.595Z,13.30
2017-12-31T00:41:33.107Z,13.40
2017-12-31T00:44:00.612Z,13.40
2017-12-31T00:46:28.176Z,13.40
2017-12-31T00:48:55.712Z,13.30
2017-12-31T00:51:23.997Z,13.30
2017-12-31T00:53:52.288Z,13.20
2017-12-31T00:56:19.807Z,13.10
2017-12-31T00:58:47.331Z,13.00
2017-12-31T01:01:14.859Z,12.90
2017-12-31T01:03:42.386Z,12.80
2017-12-31T01:06:09.892Z,12.80
2017-12-31T01:08:37.394Z,12.70
2017-12-31T01:11:04.908Z,12.70
2017-12-31T01:13:32.446Z,12.50
2017-12-31T01:16:00.740Z,12.60
2017-12-31T01:18:28.277Z,12.70
2017-12-31T01:20:56.586Z,12.80
2017-12-31T01:23:24.088Z,12.70
2017-12-31T01:25:52.367Z,12.80
2017-12-31T01:28:19.887Z,12.80
2017-12-31T01:30:47.396Z,12.80
2017-12-31T01:33:15.707Z,12.80
2017-12-31T01:35:43.208Z,12.80
2017-12-31T01:38:10.750Z,12.80
2017-12-31T01:40:38.254Z,12.80
2017-12-31T01:43:06.540Z,13.00
2017-12-31T01:45:34.086Z,13.00
2017-12-31T01:48:02.364Z,13.10
2017-12-31T01:50:30.647Z,13.10
2017-12-31T01:52:58.938Z,13.10
2017-12-31T01:55:26.486Z,13.10
2017-12-31T01:57:54.025Z,13.30
2017-12-31T02:00:21.535Z,13.30
2017-12-31T02:02:49.071Z,13.30
2017-12-31T02:05:16.589Z,13.30
2017-12-31T02:07:44.117Z,13.20
2017-12-31T02:10:11.634Z,13.20
2017-12-31T02:12:39.900Z,13.20
2017-12-31T02:15:08.183Z,13.30
2017-12-31T02:17:36.453Z,13.30
2017-12-31T02:20:03.951Z,13.30
2017-12-31T02:22:31.490Z,13.30
2017-12-31T02:24:59.007Z,13.30
2017-12-31T02:27:26.563Z,13.30
2017-12-31T02:29:54.099Z,13.20
2017-12-31T02:32:21.600Z,13.10
2017-12-31T02:34:49.893Z,13.10
2017-12-31T02:37:17.394Z,13.10
2017-12-31T02:39:44.925Z,13.10
2017-12-31T02:42:12.438Z,13.00
2017-12-31T02:44:39.978Z,13.00
2017-12-31T02:47:07.503Z,13.00
2017-12-31T02:49:35.007Z,13.00
2017-12-31T02:52:02.572Z,12.90
2017-12-31T02:54:30.096Z,12.80
2017-12-31T02:56:57.600Z,12.80
2017-12-31T02:59:25.130Z,12.80
2017-12-31T03:01:52.684Z,12.80
2017-12-31T03:04:20.299Z,12.80
2017-12-31T03:06:48.727Z,12.80
2017-12-31T03:09:16.282Z,12.80
2017-12-31T03:11:43.789Z,12.80
2017-12-31T03:14:12.062Z,12.80
2017-12-31T03:16:40.368Z,12.90
2017-12-31T03:19:07.883Z,12.80
2017-12-31T03:21:35.411Z,12.90
2017-12-31T03:24:02.963Z,12.80
2017-12-31T03:26:30.491Z,12.90
2017-12-31T03:28:58.008Z,12.90
2017-12-31T03:31:25.545Z,12.90
2017-12-31T03:33:53.048Z,12.80
2017-12-31T03:36:21.318Z,12.70
2017-12-31T03:38:48.828Z,12.70
2017-12-31T03:41:16.328Z,12.70
2017-12-31T03:43:43.879Z,12.70
2017-12-31T03:46:11.378Z,12.60
2017-12-31T03:48:38.890Z,12.50
2017-12-31T03:51:06.443Z,12.40
2017-12-31T03:53:33.943Z,12.30
2017-12-31T03:56:01.484Z,12.30
2017-12-31T03:58:28.978Z,12.30
2017-12-31T04:00:56.606Z,12.30
2017-12-31T04:03:24.878Z,12.30
2017-12-31T04:05:52.371Z,12.30
2017-12-31T04:08:19.917Z,12.40
2017-12-31T04:10:47.410Z,12.40
2017-12-31T04:13:14.945Z,12.50
2017-12-31T04:15:42.449Z,12.50
2017-12-31T04:18:09.983Z,12.60
2017-12-31T04:20:37.492Z,12.70
2017-12-31T04:23:05.771Z,12.90
2017-12-31T04:25:34.066Z,12.90
2017-12-31T04:28:01.588Z,12.90
2017-12-31T04:30:29.143Z,13.00
2017-12-31T04:32:56.667Z,13.00
2017-12-31T04:35:24.191Z,12.90
2017-12-31T04:37:52.489Z,12.70
2017-12-31T04:40:20.011Z,12.70
2017-12-31T04:42:48.312Z,12.60
2017-12-31T04:45:15.853Z,12.60
2017-12-31T04:47:44.143Z,12.60
2017-12-31T04:50:11.659Z,12.60
2017-12-31T04:52:39.163Z,12.60
2017-12-31T04:55:06.704Z,12.60
2017-12-31T04:57:34.979Z,12.80
2017-12-31T05:00:03.322Z,12.80
2017-12-31T05:02:30.845Z,12.80
2017-12-31T05:04:58.411Z,12.90
2017-12-31T05:07:25.983Z,12.80
2017-12-31T05:09:53.512Z,12.90
2017-12-31T05:12:21.024Z,12.90
2017-12-31T05:14:48.544Z,12.90
2017-12-31T05:17:16.091Z,12.90
2017-12-31T05:19:43.593Z,13.00
2017-12-31T05:22:11.130Z,13.10
2017-12-31T05:24:38.634Z,13.10
2017-12-31T05:27:06.178Z,13.20
2017-12-31T05:29:33.704Z,13.20
2017-12-31T05:32:01.220Z,13.20
2017-12-31T05:34:29.558Z,13.10
2017-12-31T05:36:57.104Z,13.10
2017-12-31T05:39:24.609Z,13.10
2017-12-31T05:41:52.131Z,13.10
2017-12-31T05:44:19.660Z,13.10
2017-12-31T05:46:47.191Z,13.00
2017-12-31T05:49:15.484Z,13.00
2017-12-31T05:51:43.011Z,13.00
2017-12-31T05:54:11.324Z,13.10
2017-12-31T05:56:38.823Z,13.10
2017-12-31T05:59:06.353Z,13.10
2017-12-31T06:01:33.893Z,13.10
2017-12-31T06:04:01.428Z,13.10
2017-12-31T06:06:28.971Z,13.10
2017-12-31T06:08:56.463Z,13.10
2017-12-31T06:11:24.757Z,13.00
2017-12-31T06:13:52.264Z,13.00
2017-12-31T06:16:19.775Z,13.00
2017-12-31T06:18:47.309Z,13.00
2017-12-31T06:21:15.569Z,12.90
2017-12-31T06:23:43.903Z,12.90
2017-12-31T06:26:11.463Z,12.90
2017-12-31T06:28:39.777Z,12.90
2017-12-31T06:31:07.316Z,12.90
2017-12-31T06:33:34.816Z,12.90
2017-12-31T06:36:03.112Z,12.70
2017-12-31T06:38:30.623Z,12.70
2017-12-31T06:40:58.133Z,12.70
2017-12-31T06:43:25.705Z,12.60
2017-12-31T06:45:53.213Z,12.50
2017-12-31T06:48:20.731Z,12.40
2017-12-31T06:50:48.268Z,12.40
2017-12-31T06:53:16.587Z,12.20
2017-12-31T06:55:44.107Z,12.10
2017-12-31T06:58:11.642Z,12.10
2017-12-31T07:00:39.908Z,11.90
2017-12-31T07:03:08.208Z,11.90
2017-12-31T07:05:35.727Z,11.80
2017-12-31T07:08:03.252Z,11.80
2017-12-31T07:10:30.766Z,11.90
2017-12-31T07:12:58.300Z,11.90
2017-12-31T07:15:25.802Z,11.90
2017-12-31T07:17:53.340Z,12.00
2017-12-31T07:20:21.647Z,12.00
2017-12-31T07:22:49.165Z,12.00
2017-12-31T07:25:17.461Z,12.00
2017-12-31T07:27:44.953Z,12.00
2017-12-31T07:30:12.492Z,12.00
2017-12-31T07:32:40.028Z,12.10
2017-12-31T07:35:07.563Z,12.10
2017-12-31T07:37:35.098Z,12.20
2017-12-31T07:40:02.629Z,12.20
2017-12-31T07:42:30.171Z,12.30
2017-12-31T07:44:57.720Z,12.30
2017-12-31T07:47:26.020Z,12.40
2017-12-31T07:49:53.526Z,12.40
2017-12-31T07:52:21.068Z,12.40
2017-12-31T07:54:48.572Z,12.40
2017-12-31T07:57:16.851Z,12.30
2017-12-31T07:59:45.146Z,12.40
2017-12-31T08:02:12.665Z,12.40
2017-12-31T08:04:40.197Z,12.40
2017-12-31T08:07:07.712Z,12.50
2017-12-31T08:09:35.250Z,12.60
2017-12-31T08:12:03.535Z,12.60
2017-12-31T08:14:31.827Z,12.70
2017-12-31T08:16:59.365Z,12.70
2017-12-31T08:19:27.641Z,12.80
2017-12-31T08:21:55.930Z,12.80
2017-12-31T08:24:23.446Z,12.80
2017-12-31T08:26:51.002Z,12.80
2017-12-31T08:29:18.538Z,13.00
2017-12-31T08:31:46.071Z,12.90
2017-12-31T08:34:13.583Z,13.00
2017-12-31T08:36:41.780Z,12.90
2017-12-31T08:39:09.364Z,12.80
2017-12-31T08:41:36.902Z,12.80
2017-12-31T08:44:05.214Z,12.80
2017-12-31T08:46:32.727Z,12.80
2017-12-31T08:49:00.318Z,12.80
2017-12-31T08:51:27.831Z,12.80
2017-12-31T08:53:55.384Z,12.80
2017-12-31T08:56:22.889Z,12.80
2017-12-31T08:58:50.396Z,12.90
2017-12-31T09:01:17.896Z,12.90
2017-12-31T09:03:46.360Z,13.00
2017-12-31T09:06:13.923Z,13.00
2017-12-31T09:08:41.444Z,13.00
2017-12-31T09:11:08.980Z,13.10
2017-12-31T09:13:36.471Z,13.10
2017-12-31T09:16:04.004Z,13.10
2017-12-31T09:18:31.548Z,13.10
2017-12-31T09:20:59.058Z,13.00
2017-12-31T09:23:26.577Z,13.00
2017-12-31T09:25:54.100Z,13.10
2017-12-31T09:28:22.382Z,13.10
2017-12-31T09:30:50.651Z,13.10
2017-12-31T09:33:18.944Z,13.10
2017-12-31T09:35:46.460Z,13.20
2017-12-31T09:38:14.024Z,13.20
2017-12-31T09:40:41.536Z,13.30
2017-12-31T09:43:09.067Z,13.30
2017-12-31T09:45:37.381Z,13.30
2017-12-31T09:48:05.553Z,13.30
2017-12-31T09:50:33.084Z,13.30
2017-12-31T09:53:00.622Z,13.30
2017-12-31T09:55:28.128Z,13.40
2017-12-31T09:57:55.678Z,13.50
2017-12-31T10:00:23.225Z,13.60
2017-12-31T10:02:50.741Z,13.60
2017-12-31T10:05:18.261Z,13.60
2017-12-31T10:07:45.817Z,13.60
2017-12-31T10:10:13.319Z,13.60
2017-12-31T10:12:40.842Z,13.60
2017-12-31T10:15:08.360Z,13.70
2017-12-31T10:17:36.715Z,13.70
2017-12-31T10:20:04.267Z,13.70
2017-12-31T10:22:31.812Z,13.70
2017-12-31T10:24:59.339Z,13.70
2017-12-31T10:27:26.859Z,13.80
2017-12-31T10:29:54.404Z,13.80
2017-12-31T10:32:21.938Z,13.80
2017-12-31T10:34:49.438Z,13.70
2017-12-31T10:37:17.752Z,13.90
2017-12-31T10:39:45.308Z,13.90
2017-12-31T10:42:12.833Z,14.00
2017-12-31T10:44:40.361Z,14.20
2017-12-31T10:47:07.921Z,14.20
2017-12-31T10:49:35.447Z,14.30
2017-12-31T10:52:02.961Z,14.30
2017-12-31T10:54:30.498Z,14.30
2017-12-31T10:56:58.027Z,14.40
2017-12-31T10:59:25.551Z,14.50
2017-12-31T11:01:53.872Z,14.60
2017-12-31T11:04:21.403Z,14.50
2017-12-31T11:06:48.941Z,14.50
2017-12-31T11:09:17.297Z,14.30
2017-12-31T11:11:44.827Z,14.30
2017-12-31T11:14:12.378Z,14.30
2017-12-31T11:16:39.885Z,14.20
2017-12-31T11:19:08.187Z,14.20
2017-12-31T11:21:35.748Z,14.20
2017-12-31T11:24:03.286Z,14.20
2017-12-31T11:26:31.588Z,14.10
2017-12-31T11:28:59.111Z,14.10
2017-12-31T11:31:26.679Z,14.10
2017-12-31T11:33:54.177Z,14.20
2017-12-31T11:36:21.752Z,14.10
2017-12-31T11:38:49.320Z,14.00
2017-12-31T11:41:16.836Z,14.10
2017-12-31T11:43:44.395Z,14.10
2017-12-31T11:46:11.966Z,14.10
2017-12-31T11:48:39.529Z,14.10
2017-12-31T11:51:07.090Z,14.00
2017-12-31T11:53:34.643Z,14.10
2017-12-31T11:56:02.176Z,14.10
2017-12-31T11:58:29.757Z,14.00
2017-12-31T12:00:57.290Z,13.90
2017-12-31T12:03:25.572Z,13.90
2017-12-31T12:05:53.872Z,14.00
2017-12-31T12:08:21.419Z,14.00
2017-12-31T12:10:48.986Z,13.90
2017-12-31T12:13:16.503Z,13.90
2017-12-31T12:15:44.023Z,13.90
2017-12-31T12:18:11.582Z,13.90
2017-12-31T12:20:39.125Z,13.90
2017-12-31T12:23:06.662Z,14.00
2017-12-31T12:25:34.204Z,14.10
2017-12-31T12:28:01.716Z,14.00
2017-12-31T12:30:29.289Z,14.10
2017-12-31T12:32:57.454Z,14.00
2017-12-31T12:35:24.988Z,14.10
2017-12-31T12:37:52.527Z,14.20
2017-12-31T12:40:20.851Z,14.50
2017-12-31T12:42:48.403Z,14.50
2017-12-31T12:45:15.911Z,14.50
2017-12-31T12:47:43.422Z,14.60
2017-12-31T12:50:10.952Z,14.70
2017-12-31T12:52:39.260Z,14.80
2017-12-31T12:55:06.775Z,14.80
2017-12-31T12:57:35.093Z,14.80
2017-12-31T13:00:02.667Z,14.80
2017-12-31T13:02:30.313Z,14.80
2017-12-31T13:04:57.827Z,14.80
2017-12-31T13:07:25.352Z,14.80
2017-12-31T13:09:52.890Z,14.70
2017-12-31T13:12:20.419Z,14.70
2017-12-31T13:14:48.752Z,14.90
2017-12-31T13:17:16.362Z,14.90
2017-12-31T13:19:43.913Z,15.10
2017-12-31T13:22:12.223Z,15.50
2017-12-31T13:24:39.775Z,15.50
2017-12-31T13:27:07.292Z,15.60
2017-12-31T13:29:35.678Z,15.60
2017-12-31T13:32:04.039Z,15.50
2017-12-31T13:34:31.611Z,15.50
2017-12-31T13:36:59.931Z,15.30
2017-12-31T13:39:28.200Z,15.30
2017-12-31T13:41:55.727Z,15.30
2017-12-31T13:44:24.034Z,15.10
2017-12-31T13:46:51.544Z,15.10
2017-12-31T13:49:19.108Z,15.00
2017-12-31T13:51:46.603Z,15.00
2017-12-31T13:54:14.109Z,15.00
2017-12-31T13:56:41.647Z,14.90
2017-12-31T13:59:09.185Z,14.80
2017-12-31T14:01:37.465Z,14.80
2017-12-31T14:04:04.996Z,14.80
2017-12-31T14:06:33.324Z,14.70
2017-12-31T14:09:00.849Z,14.70
2017-12-31T14:11:28.366Z,14.70
2017-12-31T14:13:55.922Z,14.70
2017-12-31T14:16:23.459Z,14.70
2017-12-31T14:18:50.992Z,14.60
2017-12-31T14:21:18.581Z,14.60
2017-12-31T14:23:46.118Z,14.60
2017-12-31T14:26:14.414Z,14.70
2017-12-31T14:28:42.024Z,14.70
2017-12-31T14:31:09.545Z,14.70
2017-12-31T14:33:37.096Z,14.70
2017-12-31T14:36:04.631Z,14.70
2017-12-31T14:38:32.175Z,14.70
2017-12-31T14:40:59.687Z,14.60
2017-12-31T14:43:27.229Z,14.50
2017-12-31T14:45:54.784Z,14.60
2017-12-31T14:48:22.350Z,14.50
2017-12-31T14:50:49.912Z,14.50
2017-12-31T14:53:17.455Z,14.40
2017-12-31T14:55:45.024Z,14.30
2017-12-31T14:58:12.615Z,14.30
2017-12-31T15:00:40.124Z,14.30
2017-12-31T15:03:07.699Z,14.30
2017-12-31T15:05:35.225Z,14.20
2017-12-31T15:08:02.766Z,14.20
2017-12-31T15:10:31.101Z,14.10
2017-12-31T15:12:58.619Z,14.10
2017-12-31T15:15:26.152Z,14.00
2017-12-31T15:17:53.747Z,14.00
2017-12-31T15:20:21.295Z,13.90
2017-12-31T15:22:48.883Z,13.90
2017-12-31T15:25:16.407Z,13.90
2017-12-31T15:27:43.964Z,13.90
2017-12-31T15:30:12.267Z,13.80
2017-12-31T15:32:39.814Z,13.80
2017-12-31T15:35:07.329Z,13.80
2017-12-31T15:37:34.860Z,13.70
2017-12-31T15:40:02.401Z,13.70
2017-12-31T15:42:29.922Z,13.70
2017-12-31T15:44:58.234Z,13.70
2017-12-31T15:47:25.762Z,13.70
2017-12-31T15:49:54.095Z,13.60
2017-12-31T15:52:21.625Z,13.60
2017-12-31T15:54:49.142Z,13.60
2017-12-31T15:57:16.716Z,13.60
2017-12-31T15:59:45.010Z,13.50
2017-12-31T16:02:12.552Z,13.50
2017-12-31T16:04:40.833Z,13.40
2017-12-31T16:07:08.370Z,13.40
2017-12-31T16:09:35.936Z,13.40
2017-12-31T16:12:03.500Z,13.40
2017-12-31T16:14:31.808Z,13.20
2017-12-31T16:16:59.355Z,13.20
2017-12-31T16:19:26.883Z,13.20
2017-12-31T16:21:54.400Z,13.10
2017-12-31T16:24:21.940Z,13.10
2017-12-31T16:26:49.464Z,13.00
2017-12-31T16:29:16.994Z,13.10
2017-12-31T16:31:44.508Z,13.00
2017-12-31T16:34:12.046Z,12.90
2017-12-31T16:36:40.335Z,12.80
2017-12-31T16:39:08.647Z,12.80
2017-12-31T16:41:36.159Z,12.80
2017-12-31T16:44:04.469Z,12.70
2017-12-31T16:46:31.983Z,12.70
2017-12-31T16:48:59.508Z,12.80
2017-12-31T16:51:27.049Z,12.70
2017-12-31T16:53:54.586Z,12.60
2017-12-31T16:56:22.117Z,12.50
2017-12-31T16:58:49.622Z,12.40
2017-12-31T17:01:17.167Z,12.40
2017-12-31T17:03:44.676Z,12.30
2017-12-31T17:06:12.201Z,12.20
2017-12-31T17:08:39.776Z,12.20
2017-12-31T17:11:07.308Z,12.10
2017-12-31T17:13:34.837Z,12.10
2017-12-31T17:16:02.343Z,12.10
2017-12-31T17:18:29.898Z,12.00
2017-12-31T17:20:58.192Z,11.80
2017-12-31T17:23:25.751Z,11.80
2017-12-31T17:25:53.317Z,11.70
2017-12-31T17:28:20.939Z,11.70
2017-12-31T17:30:48.526Z,11.60
2017-12-31T17:33:16.050Z,11.70
2017-12-31T17:35:43.612Z,11.70
2017-12-31T17:38:11.211Z,11.60
2017-12-31T17:40:38.779Z,11.50
2017-12-31T17:43:06.317Z,11.50
2017-12-31T17:45:33.895Z,11.40
2017-12-31T17:48:01.532Z,11.30
2017-12-31T17:50:29.259Z,11.30
2017-12-31T17:52:57.700Z,11.10
2017-12-31T17:55:25.338Z,11.10
2017-12-31T17:57:52.922Z,11.00
2017-12-31T18:00:20.548Z,11.00
2017-12-31T18:02:48.149Z,10.90
2017-12-31T18:05:15.703Z,10.80
2017-12-31T18:07:43.248Z,10.80
2017-12-31T18:10:10.783Z,10.70
2017-12-31T18:12:38.342Z,10.60
2017-12-31T18:15:05.904Z,10.50
2017-12-31T18:17:33.530Z,10.40
2017-12-31T18:20:01.849Z,10.30
2017-12-31T18:22:29.404Z,10.30
2017-12-31T18:24:56.930Z,10.20
2017-12-31T18:27:25.271Z,10.10
2017-12-31T18:29:52.899Z,10.10
2017-12-31T18:32:20.467Z,10.10
2017-12-31T18:34:48.009Z,10.10
2017-12-31T18:37:15.569Z,10.00
2017-12-31T18:39:43.920Z,10.00
2017-12-31T18:42:12.218Z,9.80
2017-12-31T18:44:39.749Z,9.80
2017-12-31T18:47:08.070Z,9.70
2017-12-31T18:49:35.591Z,9.70
2017-12-31T18:52:03.891Z,9.60
2017-12-31T18:54:31.426Z,9.60
2017-12-31T18:56:58.968Z,9.70
2017-12-31T18:59:26.520Z,9.60
2017-12-31T19:01:54.147Z,9.60
2017-12-31T19:04:21.737Z,9.60
2017-12-31T19:06:49.312Z,9.60
2017-12-31T19:09:16.953Z,9.60
2017-12-31T19:11:44.504Z,9.60
2017-12-31T19:14:12.112Z,9.70
2017-12-31T19:16:40.404Z,9.60
2017-12-31T19:19:07.982Z,9.60
2017-12-31T19:21:35.524Z,9.50
2017-12-31T19:24:03.230Z,9.50
2017-12-31T19:26:30.807Z,9.40
2017-12-31T19:28:58.413Z,9.40
2017-12-31T19:31:25.948Z,9.40
2017-12-31T19:33:54.400Z,9.30
2017-12-31T19:36:23.049Z,9.40
2017-12-31T19:38:50.615Z,9.30
2017-12-31T19:41:18.182Z,9.30
2017-12-31T19:43:45.873Z,9.30
2017-12-31T19:46:13.472Z,9.20
2017-12-31T19:48:41.095Z,9.20
2017-12-31T19:51:09.108Z,9.20
2017-12-31T19:53:38.199Z,9.20
2017-12-31T19:56:05.758Z,9.10
2017-12-31T19:58:33.301Z,9.10
2017-12-31T20:01:01.600Z,9.00
2017-12-31T20:03:29.565Z,9.00
2017-12-31T20:05:57.268Z,9.10
2017-12-31T20:08:25.779Z,9.10
2017-12-31T20:10:53.442Z,9.10
2017-12-31T20:13:21.757Z,9.10
2017-12-31T20:15:49.956Z,9.10
2017-12-31T20:18:19.348Z,9.10
2017-12-31T20:20:47.050Z,9.00
2017-12-31T20:23:14.666Z,9.10
2017-12-31T20:25:42.282Z,9.20
2017-12-31T20:28:10.748Z,9.50
2017-12-31T20:30:39.274Z,9.80
2017-12-31T20:33:07.424Z,9.80
2017-12-31T20:35:35.219Z,10.00
2017-12-31T20:38:02.987Z,10.20
2017-12-31T20:40:30.529Z,10.30
2017-12-31T20:42:58.678Z,10.40
2017-12-31T20:45:26.472Z,10.50
2017-12-31T20:47:54.188Z,10.60
2017-12-31T20:50:21.786Z,10.70
2017-12-31T20:52:49.535Z,10.90
2017-12-31T20:55:18.344Z,11.10
2017-12-31T20:57:45.997Z,11.00
2017-12-31T21:00:13.626Z,11.10
2017-12-31T21:02:41.236Z,11.20
2017-12-31T21:05:09.236Z,11.30
2017-12-31T21:07:37.049Z,11.40
2017-12-31T21:10:04.625Z,11.50
2017-12-31T21:12:32.236Z,11.50
2017-12-31T21:15:01.330Z,11.60
2017-12-31T21:17:29.093Z,11.60
2017-12-31T21:19:56.910Z,11.80
2017-12-31T21:22:24.534Z,11.80
2017-12-31T21:24:52.128Z,11.90
2017-12-31T21:27:19.778Z,12.00
2017-12-31T21:29:47.858Z,12.10
2017-12-31T21:32:15.417Z,12.20
2017-12-31T21:34:42.987Z,12.10
2017-12-31T21:37:11.479Z,12.20
2017-12-31T21:39:42.029Z,12.20
2017-12-31T21:42:09.669Z,12.20
2017-12-31T21:44:37.218Z,12.10
2017-12-31T21:47:04.908Z,12.10
2017-12-31T21:49:32.451Z,12.10
2017-12-31T21:52:00.089Z,12.20
2017-12-31T21:54:27.702Z,12.20
2017-12-31T21:56:55.234Z,12.20
2017-12-31T21:59:22.987Z,12.20
2017-12-31T22:01:50.669Z,12.20
2017-12-31T22:04:19.459Z,12.10
2017-12-31T22:06:47.168Z,12.10
2017-12-31T22:09:14.733Z,12.20
2017-12-31T22:11:43.903Z,12.20
2017-12-31T22:14:26.453Z,12.20
2017-12-31T22:16:54.045Z,12.20
2017-12-31T22:19:21.729Z,12.20
2017-12-31T22:21:49.569Z,12.20
2017-12-31T22:24:17.300Z,12.20
2017-12-31T22:26:44.940Z,12.20
2017-12-31T22:29:12.547Z,12.40
2017-12-31T22:31:40.188Z,12.50
2017-12-31T22:34:08.479Z,12.60
2017-12-31T22:36:36.384Z,12.60
2017-12-31T22:39:04.049Z,12.60
2017-12-31T22:41:31.654Z,12.60
2017-12-31T22:43:59.231Z,12.40
2017-12-31T22:46:26.885Z,12.40
2017-12-31T22:48:54.697Z,12.20
2017-12-31T22:51:22.444Z,12.20
2017-12-31T22:53:50.074Z,12.10
2017-12-31T22:56:17.599Z,12.10
2017-12-31T22:58:45.979Z,11.90
2017-12-31T23:01:13.576Z,11.90
2017-12-31T23:03:41.150Z,11.90
2017-12-31T23:06:09.414Z,11.70
2017-12-31T23:08:39.078Z,11.70
2017-12-31T23:11:07.389Z,11.60
2017-12-31T23:13:34.969Z,11.50
2017-12-31T23:16:02.530Z,11.50
2017-12-31T23:18:31.087Z,11.50
2017-12-31T23:20:58.843Z,11.40
2017-12-31T23:23:26.356Z,11.40
2017-12-31T23:25:53.950Z,11.20
2017-12-31T23:28:22.244Z,11.20
2017-12-31T23:30:49.888Z,11.20
2017-12-31T23:33:18.264Z,11.00
2017-12-31T23:35:46.640Z,10.90
2017-12-31T23:40:57.543Z,10.80
2017-12-31T23:43:25.092Z,10.80
2017-12-31T23:45:53.367Z,10.80
2017-12-31T23:48:20.965Z,10.80
2017-12-31T23:50:48.538Z,10.70
2017-12-31T23:53:16.070Z,10.70
2017-12-31T23:55:43.586Z,10.70
2017-12-31T23:58:11.146Z,10.70
